KPTS/PTS METAR and TAF weather

Enter ICAO airport designator
Station Type Date Time Source
KPTS METAR 2019/08/22 04:35 UTC NOAA

KPTS 220435Z AUTO 12005KT 10SM CLR 22/21 A2998 RMK AO2 LTG DSNT NE SW AND W T02240209


Station Type Date Time Source
KPTS Decoded METAR 2019/08/22 04:35 UTC NOAA

Station name not available
Aug 22, 2019 - 12:35 AM EDT / 2019.08.22 0435 UTC
Wind: from the ESE (120 degrees) at 6 MPH (5 KT):0
Visibility: 10 mile(s):0
Sky conditions: clear
Weather: Lightning observed
Temperature: 72.3 F (22.4 C)
Dew Point: 69.6 F (20.9 C)
Relative Humidity: 91%
Pressure (altimeter): 29.98 in. Hg (1015 hPa)
ob: KPTS 220435Z AUTO 12005KT 10SM CLR 22/21 A2998 RMK AO2 LTG DSNT NE SW AND W T02240209
cycle: 4

Station Type Date Time Source
KPTS TAF UTC NOAA

Error!

Example: see airport list